sensor_id;sensor_type;location;lat;lon;timestamp;pressure;altitude;pressure_sealevel;temperature;humidity
51243;BME280;76969;47.548;18.730;2024-03-17T00:01:38;100034.66;;;10.76;100.00
51243;BME280;76969;47.548;18.730;2024-03-17T00:04:07;100032.12;;;10.78;100.00
51243;BME280;76969;47.548;18.730;2024-03-17T00:06:33;100032.12;;;10.78;100.00
51243;BME280;76969;47.548;18.730;2024-03-17T00:08:59;100034.47;;;10.72;100.00
51243;BME280;76969;47.548;18.730;2024-03-17T00:11:26;100040.16;;;10.63;100.00
51243;BME280;76969;47.548;18.730;2024-03-17T00:13:52;100051.44;;;10.65;100.00
51243;BME280;76969;47.548;18.730;2024-03-17T00:16:18;100041.44;;;10.52;100.00
51243;BME280;76969;47.548;18.730;2024-03-17T00:18:45;100052.34;;;10.45;100.00
51243;BME280;76969;47.548;18.730;2024-03-17T00:21:12;100042.09;;;10.48;100.00
51243;BME280;76969;47.548;18.730;2024-03-17T00:23:39;100044.44;;;10.42;100.00
51243;BME280;76969;47.548;18.730;2024-03-17T00:26:05;100040.91;;;10.40;100.00
51243;BME280;76969;47.548;18.730;2024-03-17T00:28:30;100042.56;;;10.38;100.00
51243;BME280;76969;47.548;18.730;2024-03-17T00:30:56;100042.41;;;10.35;100.00
51243;BME280;76969;47.548;18.730;2024-03-17T00:33:22;100045.69;;;10.30;100.00
51243;BME280;76969;47.548;18.730;2024-03-17T00:35:50;100038.06;;;10.34;100.00
51243;BME280;76969;47.548;18.730;2024-03-17T00:38:16;100040.53;;;10.30;100.00
51243;BME280;76969;47.548;18.730;2024-03-17T00:40:42;100033.31;;;10.23;100.00
51243;BME280;76969;47.548;18.730;2024-03-17T00:43:11;100045.62;;;10.29;100.00
51243;BME280;76969;47.548;18.730;2024-03-17T00:45:37;100045.59;;;10.27;100.00
51243;BME280;76969;47.548;18.730;2024-03-17T00:48:04;100053.84;;;10.20;100.00
51243;BME280;76969;47.548;18.730;2024-03-17T00:50:32;100045.28;;;10.21;100.00
51243;BME280;76969;47.548;18.730;2024-03-17T00:52:58;100045.13;;;10.18;100.00
51243;BME280;76969;47.548;18.730;2024-03-17T00:55:24;100054.75;;;10.21;100.00
51243;BME280;76969;47.548;18.730;2024-03-17T00:57:49;100048.69;;;10.20;100.00
51243;BME280;76969;47.548;18.730;2024-03-17T01:00:16;100049.66;;;10.22;100.00
51243;BME280;76969;47.548;18.730;2024-03-17T01:02:42;100049.66;;;10.22;100.00
51243;BME280;76969;47.548;18.730;2024-03-17T01:05:08;100047.34;;;10.28;100.00
51243;BME280;76969;47.548;18.730;2024-03-17T01:07:34;100052.38;;;10.25;100.00
51243;BME280;76969;47.548;18.730;2024-03-17T01:10:00;100053.34;;;10.27;100.00
51243;BME280;76969;47.548;18.730;2024-03-17T01:12:26;100049.09;;;10.29;100.00
51243;BME280;76969;47.548;18.730;2024-03-17T01:14:52;100054.13;;;10.26;100.00
51243;BME280;76969;47.548;18.730;2024-03-17T01:17:18;100056.81;;;10.28;100.00
51243;BME280;76969;47.548;18.730;2024-03-17T01:19:45;100054.28;;;10.29;100.00
51243;BME280;76969;47.548;18.730;2024-03-17T01:22:11;100057.69;;;10.28;100.00
51243;BME280;76969;47.548;18.730;2024-03-17T01:24:37;100062.88;;;10.28;100.00
51243;BME280;76969;47.548;18.730;2024-03-17T01:27:05;100068.03;;;10.28;100.00
51243;BME280;76969;47.548;18.730;2024-03-17T01:29:32;100070.53;;;10.27;100.00
51243;BME280;76969;47.548;18.730;2024-03-17T01:31:58;100079.00;;;10.23;100.00
51243;BME280;76969;47.548;18.730;2024-03-17T01:34:23;100079.72;;;10.20;100.00
51243;BME280;76969;47.548;18.730;2024-03-17T01:36:49;100079.72;;;10.20;100.00
51243;BME280;76969;47.548;18.730;2024-03-17T01:39:15;100081.47;;;10.21;100.00
51243;BME280;76969;47.548;18.730;2024-03-17T01:41:43;100076.47;;;10.24;100.00
51243;BME280;76969;47.548;18.730;2024-03-17T01:44:22;100081.78;;;10.27;100.00
51243;BME280;76969;47.548;18.730;2024-03-17T01:46:50;100077.19;;;10.22;100.00
51243;BME280;76969;47.548;18.730;2024-03-17T01:49:16;100094.06;;;10.14;100.00
51243;BME280;76969;47.548;18.730;2024-03-17T01:51:44;100092.22;;;10.11;100.00
51243;BME280;76969;47.548;18.730;2024-03-17T01:54:11;100094.69;;;10.08;100.00
51243;BME280;76969;47.548;18.730;2024-03-17T01:56:39;100096.94;;;10.00;100.00
51243;BME280;76969;47.548;18.730;2024-03-17T01:59:07;100097.81;;;10.01;100.00
51243;BME280;76969;47.548;18.730;2024-03-17T02:01:33;100109.78;;;9.99;100.00
51243;BME280;76969;47.548;18.730;2024-03-17T02:03:59;100105.78;;;10.06;100.00
51243;BME280;76969;47.548;18.730;2024-03-17T02:06:25;100109.84;;;10.00;100.00
51243;BME280;76969;47.548;18.730;2024-03-17T02:08:52;100103.25;;;10.07;100.00
51243;BME280;76969;47.548;18.730;2024-03-17T02:13:49;100113.25;;;9.99;100.00
51243;BME280;76969;47.548;18.730;2024-03-17T02:16:15;100111.16;;;9.91;100.00
51243;BME280;76969;47.548;18.730;2024-03-17T02:18:42;100108.84;;;9.97;100.00
51243;BME280;76969;47.548;18.730;2024-03-17T02:21:08;100116.59;;;9.97;100.00
51243;BME280;76969;47.548;18.730;2024-03-17T02:23:35;100107.88;;;9.95;100.00
51243;BME280;76969;47.548;18.730;2024-03-17T02:26:00;100114.56;;;9.90;100.00
51243;BME280;76969;47.548;18.730;2024-03-17T02:28:26;100105.97;;;9.91;100.00
51243;BME280;76969;47.548;18.730;2024-03-17T02:30:52;100115.91;;;9.82;100.00
51243;BME280;76969;47.548;18.730;2024-03-17T02:33:18;100103.78;;;9.81;100.00
51243;BME280;76969;47.548;18.730;2024-03-17T02:35:45;100115.16;;;9.84;100.00
51243;BME280;76969;47.548;18.730;2024-03-17T02:38:15;100103.78;;;9.81;100.00
51243;BME280;76969;47.548;18.730;2024-03-17T02:41:01;100105.41;;;9.79;100.00
51243;BME280;76969;47.548;18.730;2024-03-17T02:43:27;100103.59;;;9.76;100.00
51243;BME280;76969;47.548;18.730;2024-03-17T02:45:53;100105.00;;;9.69;100.00
51243;BME280;76969;47.548;18.730;2024-03-17T02:48:19;100100.12;;;9.75;100.00
51243;BME280;76969;47.548;18.730;2024-03-17T02:50:45;100112.06;;;9.73;100.00
51243;BME280;76969;47.548;18.730;2024-03-17T02:53:11;100121.84;;;9.61;100.00
51243;BME280;76969;47.548;18.730;2024-03-17T02:55:37;100123.31;;;9.56;100.00
51243;BME280;76969;47.548;18.730;2024-03-17T02:58:03;100118.31;;;9.59;100.00
51243;BME280;76969;47.548;18.730;2024-03-17T03:00:29;100112.56;;;9.47;100.00
51243;BME280;76969;47.548;18.730;2024-03-17T03:02:55;100114.31;;;9.48;100.00
51243;BME280;76969;47.548;18.730;2024-03-17T03:05:21;100119.06;;;9.39;100.00
51243;BME280;76969;47.548;18.730;2024-03-17T03:07:47;100130.72;;;9.31;100.00
51243;BME280;76969;47.548;18.730;2024-03-17T03:10:13;100128.06;;;9.29;100.00
51243;BME280;76969;47.548;18.730;2024-03-17T03:12:39;100128.53;;;9.21;100.00
51243;BME280;76969;47.548;18.730;2024-03-17T03:15:05;100136.91;;;9.16;100.00
51243;BME280;76969;47.548;18.730;2024-03-17T03:17:31;100133.22;;;9.11;100.00
51243;BME280;76969;47.548;18.730;2024-03-17T03:19:57;100130.06;;;8.99;100.00
51243;BME280;76969;47.548;18.730;2024-03-17T03:22:23;100130.88;;;8.98;100.00
51243;BME280;76969;47.548;18.730;2024-03-17T03:24:52;100130.69;;;8.95;100.00
51243;BME280;76969;47.548;18.730;2024-03-17T03:27:18;100128.41;;;8.83;100.00
51243;BME280;76969;47.548;18.730;2024-03-17T03:29:44;100136.41;;;8.72;100.00
51243;BME280;76969;47.548;18.730;2024-03-17T03:32:10;100142.37;;;8.71;100.00
51243;BME280;76969;47.548;18.730;2024-03-17T03:34:36;100144.97;;;8.71;100.00
51243;BME280;76969;47.548;18.730;2024-03-17T03:37:02;100137.91;;;8.67;100.00
51243;BME280;76969;47.548;18.730;2024-03-17T03:39:28;100141.03;;;8.61;100.00
51243;BME280;76969;47.548;18.730;2024-03-17T03:41:57;100149.50;;;8.58;100.00
51243;BME280;76969;47.548;18.730;2024-03-17T03:44:23;100153.88;;;8.59;100.00
51243;BME280;76969;47.548;18.730;2024-03-17T03:46:49;100143.88;;;8.49;100.00
51243;BME280;76969;47.548;18.730;2024-03-17T03:49:15;100142.28;;;8.51;100.00
51243;BME280;76969;47.548;18.730;2024-03-17T03:51:41;100133.22;;;8.43;100.00
51243;BME280;76969;47.548;18.730;2024-03-17T03:54:06;100138.38;;;8.43;100.00
51243;BME280;76969;47.548;18.730;2024-03-17T03:56:32;100139.88;;;8.38;100.00
51243;BME280;76969;47.548;18.730;2024-03-17T03:58:59;100132.94;;;8.37;100.00
51243;BME280;76969;47.548;18.730;2024-03-17T04:01:25;100127.78;;;8.37;100.00
51243;BME280;76969;47.548;18.730;2024-03-17T04:03:51;100126.53;;;8.30;100.00
51243;BME280;76969;47.548;18.730;2024-03-17T04:06:18;100136.59;;;8.26;100.00
51243;BME280;76969;47.548;18.730;2024-03-17T04:08:44;100147.25;;;8.16;100.00
51243;BME280;76969;47.548;18.730;2024-03-17T04:11:10;100149.81;;;8.16;100.00
51243;BME280;76969;47.548;18.730;2024-03-17T04:13:36;100147.97;;;8.13;100.00
51243;BME280;76969;47.548;18.730;2024-03-17T04:16:06;100152.41;;;8.16;100.00
51243;BME280;76969;47.548;18.730;2024-03-17T04:18:33;100146.38;;;8.15;100.00
51243;BME280;76969;47.548;18.730;2024-03-17T04:21:04;100153.03;;;8.12;100.00
51243;BME280;76969;47.548;18.730;2024-03-17T04:23:32;100142.31;;;8.04;100.00
51243;BME280;76969;47.548;18.730;2024-03-17T04:25:58;100146.78;;;8.06;100.00
51243;BME280;76969;47.548;18.730;2024-03-17T04:28:25;100153.50;;;8.04;100.00
51243;BME280;76969;47.548;18.730;2024-03-17T04:30:51;100156.56;;;7.97;100.00
51243;BME280;76969;47.548;18.730;2024-03-17T04:33:17;100157.69;;;7.86;100.00
51243;BME280;76969;47.548;18.730;2024-03-17T04:35:43;100150.62;;;7.82;100.00
51243;BME280;76969;47.548;18.730;2024-03-17T04:38:09;100160.41;;;7.73;100.00
51243;BME280;76969;47.548;18.730;2024-03-17T04:40:40;100148.31;;;7.72;100.00
51243;BME280;76969;47.548;18.730;2024-03-17T04:43:06;100155.25;;;7.73;100.00
51243;BME280;76969;47.548;18.730;2024-03-17T04:45:32;100147.97;;;7.66;100.00
51243;BME280;76969;47.548;18.730;2024-03-17T04:47:58;100147.81;;;7.63;100.00
51243;BME280;76969;47.548;18.730;2024-03-17T04:50:24;100137.66;;;7.49;100.00
51243;BME280;76969;47.548;18.730;2024-03-17T04:52:51;100143.78;;;7.51;97.19
51243;BME280;76969;47.548;18.730;2024-03-17T04:55:18;100139.88;;;7.43;93.98
51243;BME280;76969;47.548;18.730;2024-03-17T04:57:45;100131.66;;;7.34;93.46
51243;BME280;76969;47.548;18.730;2024-03-17T05:00:11;100120.47;;;7.34;94.08
51243;BME280;76969;47.548;18.730;2024-03-17T05:02:41;100128.09;;;7.32;91.18
51243;BME280;76969;47.548;18.730;2024-03-17T05:05:07;100133.88;;;7.28;91.87
51243;BME280;76969;47.548;18.730;2024-03-17T05:07:34;100138.69;;;7.22;91.22
51243;BME280;76969;47.548;18.730;2024-03-17T05:10:01;100140.28;;;7.20;91.48
51243;BME280;76969;47.548;18.730;2024-03-17T05:12:27;100142.78;;;7.18;90.98
51243;BME280;76969;47.548;18.730;2024-03-17T05:14:52;100133.38;;;7.19;90.23
51243;BME280;76969;47.548;18.730;2024-03-17T05:17:18;100143.31;;;7.13;90.64
51243;BME280;76969;47.548;18.730;2024-03-17T05:19:44;100161.16;;;7.10;91.06
51243;BME280;76969;47.548;18.730;2024-03-17T05:22:10;100165.50;;;7.11;91.25
51243;BME280;76969;47.548;18.730;2024-03-17T05:24:36;100164.97;;;7.02;92.58
51243;BME280;76969;47.548;18.730;2024-03-17T05:27:02;100164.62;;;6.95;93.31
51243;BME280;76969;47.548;18.730;2024-03-17T05:29:29;100178.44;;;6.97;93.11
51243;BME280;76969;47.548;18.730;2024-03-17T05:31:55;100186.37;;;7.01;92.83
51243;BME280;76969;47.548;18.730;2024-03-17T05:34:22;100186.59;;;7.20;92.47
51243;BME280;76969;47.548;18.730;2024-03-17T05:36:52;100170.88;;;7.76;88.66
51243;BME280;76969;47.548;18.730;2024-03-17T05:39:18;100175.28;;;8.58;84.49
51243;BME280;76969;47.548;18.730;2024-03-17T05:41:45;100188.38;;;8.45;82.97
51243;BME280;76969;47.548;18.730;2024-03-17T05:44:15;100184.59;;;7.91;85.10
51243;BME280;76969;47.548;18.730;2024-03-17T05:46:41;100202.72;;;7.62;87.66
51243;BME280;76969;47.548;18.730;2024-03-17T05:49:07;100187.47;;;7.35;88.44
51243;BME280;76969;47.548;18.730;2024-03-17T05:51:33;100195.47;;;7.25;90.07
51243;BME280;76969;47.548;18.730;2024-03-17T05:53:59;100191.88;;;7.07;90.77
51243;BME280;76969;47.548;18.730;2024-03-17T05:56:25;100206.66;;;6.96;90.67
51243;BME280;76969;47.548;18.730;2024-03-17T05:58:51;100208.78;;;7.03;91.78
51243;BME280;76969;47.548;18.730;2024-03-17T06:01:17;100211.44;;;7.05;91.07
51243;BME280;76969;47.548;18.730;2024-03-17T06:03:44;100215.03;;;7.07;91.65
51243;BME280;76969;47.548;18.730;2024-03-17T06:06:10;100217.25;;;7.15;90.62
51243;BME280;76969;47.548;18.730;2024-03-17T06:08:38;100216.34;;;7.15;90.64
51243;BME280;76969;47.548;18.730;2024-03-17T06:11:06;100212.63;;;7.24;90.20
51243;BME280;76969;47.548;18.730;2024-03-17T06:13:33;100205.78;;;7.25;90.65
51243;BME280;76969;47.548;18.730;2024-03-17T06:16:02;100205.97;;;7.13;90.61
51243;BME280;76969;47.548;18.730;2024-03-17T06:18:28;100207.63;;;7.13;90.74
51243;BME280;76969;47.548;18.730;2024-03-17T06:20:54;100197.97;;;7.09;91.57
51243;BME280;76969;47.548;18.730;2024-03-17T06:23:24;100209.87;;;7.07;90.72
51243;BME280;76969;47.548;18.730;2024-03-17T06:25:50;100211.38;;;7.03;91.07
51243;BME280;76969;47.548;18.730;2024-03-17T06:28:17;100209.69;;;7.04;91.26
51243;BME280;76969;47.548;18.730;2024-03-17T06:30:44;100206.31;;;7.05;91.14
51243;BME280;76969;47.548;18.730;2024-03-17T06:33:13;100202.03;;;7.05;91.25
51243;BME280;76969;47.548;18.730;2024-03-17T06:35:39;100201.16;;;7.05;90.88
51243;BME280;76969;47.548;18.730;2024-03-17T06:38:05;100210.03;;;7.10;90.75
51243;BME280;76969;47.548;18.730;2024-03-17T06:40:36;100209.00;;;7.21;90.89
51243;BME280;76969;47.548;18.730;2024-03-17T06:43:02;100206.13;;;7.31;90.33
51243;BME280;76969;47.548;18.730;2024-03-17T06:45:28;100209.87;;;7.36;87.77
51243;BME280;76969;47.548;18.730;2024-03-17T06:47:54;100208.78;;;7.33;88.00
51243;BME280;76969;47.548;18.730;2024-03-17T06:50:21;100216.78;;;7.37;88.45
51243;BME280;76969;47.548;18.730;2024-03-17T06:52:47;100207.81;;;7.45;87.39
51243;BME280;76969;47.548;18.730;2024-03-17T06:55:13;100216.03;;;7.55;85.76
51243;BME280;76969;47.548;18.730;2024-03-17T06:57:41;100214.78;;;7.63;84.55
51243;BME280;76969;47.548;18.730;2024-03-17T07:00:12;100218.50;;;7.68;84.51
51243;BME280;76969;47.548;18.730;2024-03-17T07:02:44;100226.09;;;7.81;84.43
51243;BME280;76969;47.548;18.730;2024-03-17T07:05:13;100226.09;;;7.81;83.19
51243;BME280;76969;47.548;18.730;2024-03-17T07:07:43;100222.56;;;7.79;83.50
51243;BME280;76969;47.548;18.730;2024-03-17T07:10:10;100234.63;;;7.80;83.94
51243;BME280;76969;47.548;18.730;2024-03-17T07:12:41;100233.13;;;7.84;83.45
51243;BME280;76969;47.548;18.730;2024-03-17T07:15:08;100226.28;;;7.84;82.65
51243;BME280;76969;47.548;18.730;2024-03-17T07:17:34;100217.59;;;7.82;81.10
51243;BME280;76969;47.548;18.730;2024-03-17T07:20:00;100220.56;;;7.90;82.48
51243;BME280;76969;47.548;18.730;2024-03-17T07:22:27;100222.03;;;7.85;81.69
51243;BME280;76969;47.548;18.730;2024-03-17T07:24:54;100219.87;;;7.92;82.22
51243;BME280;76969;47.548;18.730;2024-03-17T07:27:27;100212.38;;;7.97;83.46
51243;BME280;76969;47.548;18.730;2024-03-17T07:29:53;100227.06;;;8.14;82.64
51243;BME280;76969;47.548;18.730;2024-03-17T07:32:19;100222.12;;;8.02;80.62
51243;BME280;76969;47.548;18.730;2024-03-17T07:34:45;100222.47;;;8.08;82.19
51243;BME280;76969;47.548;18.730;2024-03-17T07:37:11;100218.53;;;8.15;81.92
51243;BME280;76969;47.548;18.730;2024-03-17T07:39:37;100216.03;;;8.17;81.79
51243;BME280;76969;47.548;18.730;2024-03-17T07:42:03;100239.84;;;8.13;82.03
51243;BME280;76969;47.548;18.730;2024-03-17T07:44:29;100244.19;;;8.28;81.08
51243;BME280;76969;47.548;18.730;2024-03-17T07:47:03;100243.75;;;8.21;80.55
51243;BME280;76969;47.548;18.730;2024-03-17T07:49:30;100229.50;;;8.27;79.99
51243;BME280;76969;47.548;18.730;2024-03-17T07:51:56;100243.38;;;8.29;80.17
51243;BME280;76969;47.548;18.730;2024-03-17T07:54:26;100243.09;;;8.25;80.13
51243;BME280;76969;47.548;18.730;2024-03-17T07:56:53;100243.97;;;8.40;80.27
51243;BME280;76969;47.548;18.730;2024-03-17T07:59:20;100253.16;;;8.68;78.55
51243;BME280;76969;47.548;18.730;2024-03-17T08:01:46;100248.47;;;8.93;77.34
51243;BME280;76969;47.548;18.730;2024-03-17T08:04:12;100252.25;;;9.34;75.32
51243;BME280;76969;47.548;18.730;2024-03-17T08:06:39;100274.03;;;9.39;73.56
51243;BME280;76969;47.548;18.730;2024-03-17T08:09:09;100259.22;;;9.18;75.16
51243;BME280;76969;47.548;18.730;2024-03-17T08:11:36;100255.53;;;9.13;75.75
51243;BME280;76969;47.548;18.730;2024-03-17T08:14:02;100265.19;;;9.69;72.40
51243;BME280;76969;47.548;18.730;2024-03-17T08:16:28;100262.69;;;10.07;69.67
51243;BME280;76969;47.548;18.730;2024-03-17T08:18:56;100259.16;;;10.42;68.71
51243;BME280;76969;47.548;18.730;2024-03-17T08:21:22;100266.78;;;10.39;67.67
51243;BME280;76969;47.548;18.730;2024-03-17T08:23:48;100268.47;;;10.96;65.91
51243;BME280;76969;47.548;18.730;2024-03-17T08:26:15;100265.97;;;11.59;62.73
51243;BME280;76969;47.548;18.730;2024-03-17T08:28:41;100271.00;;;10.95;61.53
51243;BME280;76969;47.548;18.730;2024-03-17T08:31:06;100256.78;;;11.25;61.97
51243;BME280;76969;47.548;18.730;2024-03-17T08:33:32;100267.03;;;11.22;60.49
51243;BME280;76969;47.548;18.730;2024-03-17T08:36:06;100269.25;;;10.94;60.74
51243;BME280;76969;47.548;18.730;2024-03-17T08:38:36;100270.19;;;11.57;59.68
51243;BME280;76969;47.548;18.730;2024-03-17T08:41:07;100276.78;;;11.08;60.68
51243;BME280;76969;47.548;18.730;2024-03-17T08:43:33;100276.66;;;11.46;60.57
51243;BME280;76969;47.548;18.730;2024-03-17T08:46:01;100264.00;;;11.74;56.83
51243;BME280;76969;47.548;18.730;2024-03-17T08:48:30;100262.88;;;11.47;57.87
51243;BME280;76969;47.548;18.730;2024-03-17T08:50:57;100269.69;;;11.45;58.79
51243;BME280;76969;47.548;18.730;2024-03-17T08:53:24;100275.75;;;12.08;58.50
51243;BME280;76969;47.548;18.730;2024-03-17T08:55:51;100281.28;;;12.62;58.43
51243;BME280;76969;47.548;18.730;2024-03-17T08:58:17;100284.59;;;12.13;55.57
51243;BME280;76969;47.548;18.730;2024-03-17T09:00:43;100282.94;;;11.31;56.36
51243;BME280;76969;47.548;18.730;2024-03-17T09:03:09;100292.97;;;11.43;58.49
51243;BME280;76969;47.548;18.730;2024-03-17T09:05:42;100293.22;;;11.09;60.16
51243;BME280;76969;47.548;18.730;2024-03-17T09:08:27;100305.34;;;10.52;58.38
51243;BME280;76969;47.548;18.730;2024-03-17T09:10:54;100302.28;;;10.23;60.79
51243;BME280;76969;47.548;18.730;2024-03-17T09:13:22;100298.25;;;10.48;62.45
51243;BME280;76969;47.548;18.730;2024-03-17T09:18:18;100312.00;;;10.11;61.82
51243;BME280;76969;47.548;18.730;2024-03-17T09:20:43;100307.41;;;10.41;62.90
51243;BME280;76969;47.548;18.730;2024-03-17T09:23:09;100315.69;;;10.71;60.46
51243;BME280;76969;47.548;18.730;2024-03-17T09:25:35;100314.87;;;10.17;61.64
51243;BME280;76969;47.548;18.730;2024-03-17T09:28:01;100313.84;;;9.96;61.75
51243;BME280;76969;47.548;18.730;2024-03-17T09:30:27;100310.53;;;10.16;61.97
51243;BME280;76969;47.548;18.730;2024-03-17T09:32:53;100309.56;;;10.69;60.99
51243;BME280;76969;47.548;18.730;2024-03-17T09:35:19;100296.34;;;11.21;60.45
51243;BME280;76969;47.548;18.730;2024-03-17T09:37:44;100307.03;;;11.09;56.66
51243;BME280;76969;47.548;18.730;2024-03-17T09:40:14;100320.41;;;10.99;58.21
51243;BME280;76969;47.548;18.730;2024-03-17T09:42:41;100310.34;;;11.05;59.77
51243;BME280;76969;47.548;18.730;2024-03-17T09:45:10;100303.41;;;11.25;59.47
51243;BME280;76969;47.548;18.730;2024-03-17T09:47:36;100306.38;;;10.75;57.42
51243;BME280;76969;47.548;18.730;2024-03-17T09:50:02;100319.25;;;10.93;58.39
51243;BME280;76969;47.548;18.730;2024-03-17T09:52:29;100310.66;;;10.55;59.26
51243;BME280;76969;47.548;18.730;2024-03-17T09:55:01;100314.63;;;10.85;60.19
51243;BME280;76969;47.548;18.730;2024-03-17T09:57:28;100319.34;;;10.57;57.63
51243;BME280;76969;47.548;18.730;2024-03-17T09:59:54;100328.69;;;10.53;59.00
51243;BME280;76969;47.548;18.730;2024-03-17T10:02:21;100318.41;;;10.55;57.62
51243;BME280;76969;47.548;18.730;2024-03-17T10:04:48;100319.94;;;10.69;57.41
51243;BME280;76969;47.548;18.730;2024-03-17T10:07:14;100314.22;;;10.76;58.04
51243;BME280;76969;47.548;18.730;2024-03-17T10:09:42;100314.75;;;10.89;57.75
51243;BME280;76969;47.548;18.730;2024-03-17T10:12:29;100320.22;;;10.75;56.98
51243;BME280;76969;47.548;18.730;2024-03-17T10:15:01;100306.72;;;10.82;56.99
51243;BME280;76969;47.548;18.730;2024-03-17T10:17:33;100304.78;;;11.17;58.26
51243;BME280;76969;47.548;18.730;2024-03-17T10:20:18;100312.59;;;10.98;55.99
51243;BME280;76969;47.548;18.730;2024-03-17T10:23:04;100313.69;;;11.43;56.66
51243;BME280;76969;47.548;18.730;2024-03-17T10:25:32;100306.03;;;11.06;58.17
51243;BME280;76969;47.548;18.730;2024-03-17T10:27:59;100309.84;;;10.75;58.08
51243;BME280;76969;47.548;18.730;2024-03-17T10:30:27;100308.13;;;10.95;57.69
51243;BME280;76969;47.548;18.730;2024-03-17T10:32:59;100297.66;;;11.52;56.57
51243;BME280;76969;47.548;18.730;2024-03-17T10:35:33;100315.53;;;11.26;54.13
51243;BME280;76969;47.548;18.730;2024-03-17T10:38:04;100312.59;;;10.98;54.99
51243;BME280;76969;47.548;18.730;2024-03-17T10:40:31;100307.63;;;10.83;54.14
51243;BME280;76969;47.548;18.730;2024-03-17T10:43:04;100304.41;;;10.69;52.66
51243;BME280;76969;47.548;18.730;2024-03-17T10:45:32;100302.44;;;10.83;56.51
51243;BME280;76969;47.548;18.730;2024-03-17T10:48:06;100304.41;;;11.08;56.41
51243;BME280;76969;47.548;18.730;2024-03-17T10:50:37;100304.69;;;10.75;56.64
51243;BME280;76969;47.548;18.730;2024-03-17T10:53:07;100292.13;;;11.04;58.27
51243;BME280;76969;47.548;18.730;2024-03-17T10:55:46;100291.28;;;11.24;56.26
51243;BME280;76969;47.548;18.730;2024-03-17T11:00:45;100279.19;;;10.84;55.91
51243;BME280;76969;47.548;18.730;2024-03-17T11:03:13;100280.41;;;11.12;55.65
51243;BME280;76969;47.548;18.730;2024-03-17T11:05:41;100288.13;;;11.31;55.54
51243;BME280;76969;47.548;18.730;2024-03-17T11:08:14;100290.56;;;11.68;55.60
51243;BME280;76969;47.548;18.730;2024-03-17T11:10:49;100287.75;;;11.83;51.62
51243;BME280;76969;47.548;18.730;2024-03-17T11:13:35;100286.81;;;11.81;51.31
51243;BME280;76969;47.548;18.730;2024-03-17T11:16:25;100284.22;;;11.62;51.27
51243;BME280;76969;47.548;18.730;2024-03-17T11:18:51;100290.94;;;11.57;51.55
51243;BME280;76969;47.548;18.730;2024-03-17T11:24:01;100280.06;;;11.45;55.30
51243;BME280;76969;47.548;18.730;2024-03-17T11:26:32;100278.69;;;11.53;52.67
51243;BME280;76969;47.548;18.730;2024-03-17T11:28:59;100272.47;;;11.49;53.30
51243;BME280;76969;47.548;18.730;2024-03-17T11:33:59;100273.28;;;11.69;53.16
51243;BME280;76969;47.548;18.730;2024-03-17T11:39:10;100269.03;;;12.13;51.74
51243;BME280;76969;47.548;18.730;2024-03-17T11:41:51;100268.28;;;11.94;51.32
51243;BME280;76969;47.548;18.730;2024-03-17T11:44:25;100253.41;;;11.89;49.43
51243;BME280;76969;47.548;18.730;2024-03-17T11:47:00;100265.47;;;12.11;49.99
51243;BME280;76969;47.548;18.730;2024-03-17T11:49:29;100260.47;;;11.51;50.27
51243;BME280;76969;47.548;18.730;2024-03-17T11:51:56;100252.25;;;11.40;48.62
51243;BME280;76969;47.548;18.730;2024-03-17T11:54:24;100258.31;;;11.62;49.23
51243;BME280;76969;47.548;18.730;2024-03-17T11:56:54;100241.09;;;11.64;48.40
51243;BME280;76969;47.548;18.730;2024-03-17T11:59:21;100242.03;;;11.44;49.10
51243;BME280;76969;47.548;18.730;2024-03-17T12:01:49;100246.56;;;11.28;49.75
51243;BME280;76969;47.548;18.730;2024-03-17T12:04:17;100237.53;;;11.39;49.78
51243;BME280;76969;47.548;18.730;2024-03-17T12:07:04;100244.78;;;11.48;50.38
51243;BME280;76969;47.548;18.730;2024-03-17T12:09:36;100242.25;;;11.50;48.90
51243;BME280;76969;47.548;18.730;2024-03-17T12:12:02;100248.41;;;11.52;48.51
51243;BME280;76969;47.548;18.730;2024-03-17T12:14:39;100235.81;;;11.61;48.04
51243;BME280;76969;47.548;18.730;2024-03-17T12:17:08;100228.97;;;11.63;48.12
51243;BME280;76969;47.548;18.730;2024-03-17T12:19:34;100222.63;;;11.77;47.34
51243;BME280;76969;47.548;18.730;2024-03-17T12:22:02;100221.16;;;11.40;46.43
51243;BME280;76969;47.548;18.730;2024-03-17T12:24:30;100217.50;;;11.35;49.33
51243;BME280;76969;47.548;18.730;2024-03-17T12:26:58;100213.44;;;11.42;49.72
51243;BME280;76969;47.548;18.730;2024-03-17T12:29:33;100215.03;;;11.38;51.18
51243;BME280;76969;47.548;18.730;2024-03-17T12:32:05;100217.88;;;11.45;49.24
51243;BME280;76969;47.548;18.730;2024-03-17T12:34:36;100204.34;;;11.52;50.86
51243;BME280;76969;47.548;18.730;2024-03-17T12:37:03;100195.84;;;11.77;50.65
51243;BME280;76969;47.548;18.730;2024-03-17T12:39:33;100196.75;;;12.00;49.29
51243;BME280;76969;47.548;18.730;2024-03-17T12:42:14;100203.94;;;12.07;46.27
51243;BME280;76969;47.548;18.730;2024-03-17T12:44:47;100186.63;;;11.83;46.20
51243;BME280;76969;47.548;18.730;2024-03-17T12:47:21;100187.34;;;11.37;47.73
51243;BME280;76969;47.548;18.730;2024-03-17T12:49:54;100194.88;;;11.31;48.75
51243;BME280;76969;47.548;18.730;2024-03-17T12:57:47;100190.81;;;11.17;49.49
51243;BME280;76969;47.548;18.730;2024-03-17T13:00:32;100178.06;;;11.43;49.00
51243;BME280;76969;47.548;18.730;2024-03-17T13:02:58;100190.06;;;11.40;48.55
51243;BME280;76969;47.548;18.730;2024-03-17T13:05:24;100189.06;;;11.58;51.35